Time;durP1;ratioP1;P1;durP2;ratioP2;P2;SDS_P1;SDS_P2;PMS_P1;PMS_P2;Temp;Humidity;BMP_temperature;BMP_pressure;BME280_temperature;BME280_humidity;BME280_pressure;Samples;Min_cycle;Max_cycle;Signal;HPM_P1;HPM_P2
2023/12/06 00:01:07;;;;;;;1525.50;999.90;;;26.90;99.90;;;;;;5055056;28;20027;-66
2023/12/06 00:03:34;;;;;;;1522.18;999.90;;;26.90;99.90;;;;;;5055311;28;20482;-65
2023/12/06 00:06:00;;;;;;;1530.55;999.90;;;26.90;99.90;;;;;;5054962;28;20029;-66
2023/12/06 00:08:27;;;;;;;1547.18;999.90;;;26.90;99.90;;;;;;5067823;28;20017;-66
2023/12/06 00:10:53;;;;;;;1542.63;999.90;;;27.00;99.90;;;;;;5054737;28;20027;-66
2023/12/06 00:13:20;;;;;;;1544.55;999.90;;;27.00;99.90;;;;;;5054797;28;20056;-63
2023/12/06 00:15:46;;;;;;;1548.65;999.90;;;27.00;99.90;;;;;;5054160;28;20408;-65
2023/12/06 00:18:13;;;;;;;1535.28;999.90;;;27.00;99.90;;;;;;5034792;28;20495;-65
2023/12/06 00:20:40;;;;;;;1533.00;999.90;;;27.00;99.90;;;;;;5035004;28;20030;-66
2023/12/06 00:23:06;;;;;;;1507.28;999.90;;;27.10;99.90;;;;;;5034863;28;20052;-66
2023/12/06 00:25:33;;;;;;;1534.63;999.90;;;27.10;99.90;;;;;;5035227;28;20024;-66
2023/12/06 00:28:01;;;;;;;1550.88;999.90;;;27.10;99.90;;;;;;5034760;28;20025;-65
2023/12/06 00:30:27;;;;;;;1539.25;999.90;;;27.20;99.90;;;;;;5034968;28;20289;-66
2023/12/06 00:32:54;;;;;;;1535.82;999.90;;;27.20;99.90;;;;;;5034688;28;20084;-66
2023/12/06 00:35:21;;;;;;;1538.30;999.90;;;27.30;99.90;;;;;;5034715;28;20076;-66
2023/12/06 00:37:47;;;;;;;1534.22;999.90;;;27.30;99.90;;;;;;5034279;28;20100;-66
2023/12/06 00:40:14;;;;;;;1521.50;999.90;;;27.40;99.90;;;;;;5034310;28;20033;-66
2023/12/06 00:42:40;;;;;;;1536.38;999.90;;;27.40;99.90;;;;;;5034068;28;20034;-66
2023/12/06 00:45:07;;;;;;;1548.68;999.90;;;27.40;99.90;;;;;;5034443;28;20468;-65
2023/12/06 00:47:34;;;;;;;1524.38;999.90;;;27.50;99.90;;;;;;5033776;28;20568;-66
2023/12/06 00:50:00;;;;;;;1548.35;999.90;;;27.60;99.90;;;;;;5033809;28;20051;-66
2023/12/06 00:52:27;;;;;;;1528.38;999.90;;;27.60;99.90;;;;;;5033798;28;20025;-65
2023/12/06 00:54:53;;;;;;;1539.70;999.90;;;27.70;99.90;;;;;;5033734;28;20025;-66
2023/12/06 00:57:20;;;;;;;1542.78;999.90;;;27.80;99.90;;;;;;5033768;28;20029;-66
2023/12/06 00:59:46;;;;;;;1430.20;999.90;;;27.80;99.90;;;;;;5033230;28;20408;-65
2023/12/06 01:02:13;;;;;;;1512.60;999.90;;;27.80;99.90;;;;;;5033548;28;20037;-67
2023/12/06 01:04:39;;;;;;;1556.30;999.90;;;27.90;99.90;;;;;;5033966;28;20472;-65
2023/12/06 01:07:06;;;;;;;1498.45;999.90;;;28.00;99.90;;;;;;5033654;28;20378;-65
2023/12/06 01:09:32;;;;;;;1551.22;999.90;;;28.00;99.90;;;;;;5035902;28;20471;-66
2023/12/06 01:11:59;;;;;;;1499.85;999.90;;;28.00;99.90;;;;;;5048465;28;20068;-64
2023/12/06 01:14:26;;;;;;;1546.45;999.90;;;28.00;99.90;;;;;;5036462;28;20029;-66
2023/12/06 01:16:52;;;;;;;1541.30;999.90;;;28.10;99.90;;;;;;5041295;28;20032;-66
2023/12/06 01:19:19;;;;;;;1444.88;999.90;;;28.10;99.90;;;;;;5053430;28;20029;-66
2023/12/06 01:21:45;;;;;;;1430.07;999.90;;;28.20;99.90;;;;;;5047798;28;20084;-66
2023/12/06 01:24:12;;;;;;;1551.57;999.90;;;28.30;99.90;;;;;;5053285;28;20036;-66
2023/12/06 01:26:38;;;;;;;1510.35;999.90;;;28.40;99.90;;;;;;5053621;28;20443;-66
2023/12/06 01:29:07;;;;;;;1546.05;999.90;;;28.40;99.90;;;;;;5053444;28;20027;-66
2023/12/06 01:31:34;;;;;;;1532.53;999.90;;;28.50;99.90;;;;;;5064934;28;20394;-64
2023/12/06 01:34:00;;;;;;;1544.95;999.90;;;28.60;99.90;;;;;;5073408;28;20048;-64
2023/12/06 01:36:27;;;;;;;1538.28;999.90;;;28.60;99.90;;;;;;5073645;28;20054;-64
2023/12/06 01:38:54;;;;;;;1540.75;999.90;;;28.60;99.90;;;;;;5073630;28;20029;-64
2023/12/06 01:41:20;;;;;;;1512.65;999.90;;;28.60;99.90;;;;;;5073239;28;20025;-66
2023/12/06 01:43:47;;;;;;;1543.13;999.90;;;28.60;99.90;;;;;;5073438;28;20017;-65
2023/12/06 01:46:13;;;;;;;1535.65;999.90;;;28.70;99.90;;;;;;5073272;28;20025;-64
2023/12/06 01:48:42;;;;;;;1526.13;999.90;;;28.80;99.90;;;;;;5073181;28;20019;-63
2023/12/06 01:51:12;;;;;;;1531.82;999.90;;;28.90;99.90;;;;;;5073647;28;20094;-64
2023/12/06 01:53:39;;;;;;;1549.15;999.90;;;28.90;99.90;;;;;;5073301;28;20098;-64
2023/12/06 01:56:07;;;;;;;1532.28;999.90;;;29.00;99.90;;;;;;5073009;28;20538;-64
2023/12/06 01:58:36;;;;;;;1534.45;999.90;;;29.00;99.90;;;;;;5073151;28;20036;-65
2023/12/06 02:01:04;;;;;;;1519.78;999.90;;;29.10;99.90;;;;;;5073161;28;20029;-64
2023/12/06 02:03:33;;;;;;;1524.07;999.90;;;29.10;99.90;;;;;;5073024;28;20109;-65
2023/12/06 02:06:03;;;;;;;1546.63;999.90;;;29.20;99.90;;;;;;5072995;28;20025;-64
2023/12/06 02:08:32;;;;;;;1549.13;999.90;;;29.20;99.90;;;;;;5072731;28;20107;-64
2023/12/06 02:10:58;;;;;;;1543.72;999.90;;;29.30;99.90;;;;;;5074901;28;20471;-64
2023/12/06 02:13:25;;;;;;;1541.85;999.90;;;29.30;99.90;;;;;;5076880;28;20020;-65
2023/12/06 02:15:52;;;;;;;1544.80;999.90;;;29.30;99.90;;;;;;5076509;28;20020;-64
2023/12/06 02:18:19;;;;;;;1544.28;999.90;;;29.30;99.90;;;;;;5076648;28;20021;-65
2023/12/06 02:20:46;;;;;;;1523.65;999.90;;;29.30;99.90;;;;;;5076672;28;20028;-65
2023/12/06 02:23:15;;;;;;;1540.22;999.90;;;29.30;99.90;;;;;;5076383;28;20430;-65
2023/12/06 02:25:42;;;;;;;1541.60;999.90;;;29.30;99.90;;;;;;5076528;28;20081;-65
2023/12/06 02:28:09;;;;;;;1546.55;999.90;;;29.40;99.90;;;;;;5076587;28;20387;-65
2023/12/06 02:30:36;;;;;;;1549.15;999.90;;;29.50;99.90;;;;;;5076270;28;20012;-65
2023/12/06 02:33:02;;;;;;;1524.78;999.90;;;29.60;99.90;;;;;;5076257;28;20471;-66
2023/12/06 02:35:35;;;;;;;1548.13;999.90;;;29.70;99.90;;;;;;5076063;28;20035;-65
2023/12/06 02:38:03;;;;;;;1552.43;999.90;;;29.80;99.90;;;;;;5059038;28;20040;-66
2023/12/06 02:40:31;;;;;;;1550.57;999.90;;;29.90;99.90;;;;;;5076192;28;20105;-66
2023/12/06 02:43:00;;;;;;;1550.57;999.90;;;30.10;99.90;;;;;;5076141;28;20028;-65
2023/12/06 02:45:26;;;;;;;1550.68;999.90;;;30.10;99.90;;;;;;5076051;28;20021;-64
2023/12/06 02:47:53;;;;;;;1546.85;999.90;;;30.20;99.90;;;;;;5069463;28;20013;-66
2023/12/06 02:50:19;;;;;;;1546.28;999.90;;;30.10;99.90;;;;;;5055710;28;20456;-66
2023/12/06 02:52:46;;;;;;;1543.60;999.90;;;30.10;99.90;;;;;;5056004;28;20033;-65
2023/12/06 02:55:12;;;;;;;1542.72;999.90;;;30.10;99.90;;;;;;5056177;28;20025;-65
2023/12/06 02:57:39;;;;;;;1547.93;999.90;;;30.00;99.90;;;;;;5055333;28;20031;-65
2023/12/06 03:00:07;;;;;;;1548.30;999.90;;;30.00;99.90;;;;;;5055572;28;20614;-66
2023/12/06 03:02:34;;;;;;;1487.05;999.90;;;30.00;99.90;;;;;;5055360;28;20066;-66
2023/12/06 03:05:00;;;;;;;1581.25;999.90;;;30.00;99.90;;;;;;5055413;28;20021;-65
2023/12/06 03:07:27;;;;;;;1572.90;999.90;;;30.00;99.90;;;;;;5055310;28;20025;-66
2023/12/06 03:09:53;;;;;;;1567.68;999.90;;;30.00;99.90;;;;;;5055418;28;20017;-68
2023/12/06 03:12:20;;;;;;;1682.90;999.90;;;30.00;99.90;;;;;;5055249;28;20387;-65
2023/12/06 03:14:46;;;;;;;1585.15;999.90;;;30.10;99.90;;;;;;5036798;28;20411;-66
2023/12/06 03:17:13;;;;;;;1555.57;999.90;;;30.20;99.90;;;;;;5053189;28;20074;-66
2023/12/06 03:19:39;;;;;;;1544.75;999.90;;;30.20;99.90;;;;;;5053274;28;20039;-66
2023/12/06 03:22:06;;;;;;;1547.07;999.90;;;30.20;99.90;;;;;;5053656;28;20122;-66
2023/12/06 03:24:33;;;;;;;1553.70;999.90;;;30.30;99.90;;;;;;5053950;28;20021;-66
2023/12/06 03:26:59;;;;;;;1545.38;999.90;;;30.40;99.90;;;;;;5054424;28;20400;-66
2023/12/06 03:29:26;;;;;;;1548.75;999.90;;;30.50;99.90;;;;;;5054499;28;20021;-66
2023/12/06 03:31:52;;;;;;;1545.07;999.90;;;30.50;99.90;;;;;;5054815;28;20421;-66
2023/12/06 03:34:19;;;;;;;1525.75;999.90;;;30.60;99.90;;;;;;5054882;28;20107;-66
2023/12/06 03:36:45;;;;;;;1542.53;999.90;;;30.60;99.90;;;;;;5054804;28;20033;-66
2023/12/06 03:39:12;;;;;;;1517.35;999.90;;;30.80;99.90;;;;;;5054837;28;20075;-66
2023/12/06 03:41:38;;;;;;;1498.78;999.90;;;30.80;99.90;;;;;;5054454;28;20483;-65
2023/12/06 03:44:05;;;;;;;1551.32;999.90;;;31.00;99.90;;;;;;5054410;28;20036;-65
2023/12/06 03:46:32;;;;;;;1551.07;999.90;;;31.10;99.90;;;;;;5054922;28;20051;-65
2023/12/06 03:48:58;;;;;;;1550.35;999.90;;;31.10;99.90;;;;;;5054599;28;20553;-64
2023/12/06 03:51:25;;;;;;;1549.78;999.90;;;31.20;99.90;;;;;;5054161;28;20057;-64
2023/12/06 03:53:52;;;;;;;1538.53;999.90;;;31.30;99.90;;;;;;5054467;28;20104;-64
2023/12/06 03:56:18;;;;;;;1547.38;999.90;;;31.30;99.90;;;;;;5054397;28;20040;-65
2023/12/06 03:58:45;;;;;;;1549.35;999.90;;;31.30;99.90;;;;;;5053332;28;20380;-66
2023/12/06 04:01:12;;;;;;;1551.65;999.90;;;31.30;99.90;;;;;;5060870;28;20025;-66
2023/12/06 04:03:41;;;;;;;1552.70;999.90;;;31.30;99.90;;;;;;5074011;28;20111;-63
2023/12/06 04:06:08;;;;;;;1548.15;999.90;;;31.20;99.90;;;;;;5073795;28;20054;-65
2023/12/06 04:08:34;;;;;;;1543.43;999.90;;;31.20;99.90;;;;;;5047953;28;20021;-68
2023/12/06 04:11:01;;;;;;;1546.05;999.90;;;31.30;99.90;;;;;;5073784;28;20016;-66
2023/12/06 04:13:28;;;;;;;1550.72;999.90;;;31.30;99.90;;;;;;5073181;28;20025;-65
2023/12/06 04:15:54;;;;;;;1533.18;999.90;;;31.30;99.90;;;;;;5073709;28;20540;-64
2023/12/06 04:18:21;;;;;;;1551.70;999.90;;;31.30;99.90;;;;;;5073545;28;20028;-65
2023/12/06 04:20:48;;;;;;;1557.05;999.90;;;31.40;99.90;;;;;;5071023;28;20483;-66
2023/12/06 04:23:15;;;;;;;1551.40;999.90;;;31.50;99.90;;;;;;5073458;28;20040;-63
2023/12/06 04:25:41;;;;;;;1537.03;999.90;;;31.50;99.90;;;;;;5073487;28;20493;-64
2023/12/06 04:28:08;;;;;;;1543.22;999.90;;;31.40;99.90;;;;;;5073513;28;20016;-64
2023/12/06 04:30:34;;;;;;;1510.15;999.90;;;31.30;99.90;;;;;;5073302;28;20013;-63
2023/12/06 04:33:01;;;;;;;1534.65;999.90;;;31.40;99.90;;;;;;5072727;28;20036;-66
2023/12/06 04:35:27;;;;;;;1552.88;999.90;;;31.30;99.90;;;;;;5053541;28;20149;-65
2023/12/06 04:37:54;;;;;;;1537.68;999.90;;;31.40;99.90;;;;;;5037304;28;20036;-65
2023/12/06 04:40:20;;;;;;;1535.05;999.90;;;31.50;99.90;;;;;;5033722;28;20041;-65
2023/12/06 04:42:47;;;;;;;1551.00;999.90;;;31.50;99.90;;;;;;5065762;28;20375;-66
2023/12/06 04:45:13;;;;;;;1551.40;999.90;;;31.60;99.90;;;;;;5073281;28;20380;-66
2023/12/06 04:47:40;;;;;;;1556.72;999.90;;;31.70;99.90;;;;;;5073275;28;20550;-66
2023/12/06 04:50:08;;;;;;;1550.45;999.90;;;31.80;99.90;;;;;;5073305;28;20056;-66
2023/12/06 04:52:34;;;;;;;1547.93;999.90;;;31.80;99.90;;;;;;5073111;28;20025;-66
2023/12/06 04:55:04;;;;;;;1544.60;999.90;;;31.80;99.90;;;;;;5073373;28;20025;-66
2023/12/06 04:57:31;;;;;;;1554.68;999.90;;;32.00;99.90;;;;;;5069210;28;20103;-61
2023/12/06 04:59:57;;;;;;;1554.40;999.90;;;32.10;99.90;;;;;;5062717;28;20071;-67
2023/12/06 05:02:24;;;;;;;1559.13;999.90;;;32.30;99.90;;;;;;5065851;28;20039;-63
2023/12/06 05:04:50;;;;;;;1552.68;999.90;;;32.30;99.90;;;;;;5068107;28;20514;-63
2023/12/06 05:07:17;;;;;;;1535.47;999.90;;;32.30;99.90;;;;;;5066163;28;20429;-64
2023/12/06 05:09:43;;;;;;;1535.20;999.90;;;32.30;99.90;;;;;;5070486;28;20062;-64
2023/12/06 05:12:10;;;;;;;1555.63;999.90;;;32.30;99.90;;;;;;5065890;28;20016;-63
2023/12/06 05:14:36;;;;;;;1530.70;999.90;;;32.20;99.90;;;;;;5068796;28;20021;-62
2023/12/06 05:17:03;;;;;;;1538.55;999.90;;;32.20;99.90;;;;;;5072816;28;20430;-64
2023/12/06 05:19:30;;;;;;;1557.38;999.90;;;32.20;99.90;;;;;;5072243;28;20020;-63
2023/12/06 05:21:56;;;;;;;1551.97;999.90;;;32.20;99.90;;;;;;5062454;28;20036;-65
2023/12/06 05:24:23;;;;;;;1553.07;999.90;;;32.30;99.90;;;;;;5070191;28;20117;-66
2023/12/06 05:26:49;;;;;;;1560.15;999.90;;;32.50;99.90;;;;;;5072884;28;20024;-64
2023/12/06 05:29:16;;;;;;;1556.60;999.90;;;32.50;99.90;;;;;;5043271;28;20586;-65
2023/12/06 05:31:43;;;;;;;1551.45;999.90;;;32.50;99.90;;;;;;5067206;28;20029;-65
2023/12/06 05:34:09;;;;;;;1556.68;999.90;;;32.70;99.90;;;;;;5072921;28;20079;-65
2023/12/06 05:36:36;;;;;;;1551.30;999.90;;;32.70;99.90;;;;;;5058176;28;20099;-65
2023/12/06 05:39:07;;;;;;;1560.50;999.90;;;32.70;99.90;;;;;;5060761;28;20035;-65
2023/12/06 05:41:34;;;;;;;1549.53;999.90;;;32.80;99.90;;;;;;5067016;28;20151;-63
2023/12/06 05:44:00;;;;;;;1559.28;999.90;;;32.80;99.90;;;;;;5068198;28;20013;-64
2023/12/06 05:46:27;;;;;;;1540.05;999.90;;;32.80;99.90;;;;;;5070276;28;20013;-64
2023/12/06 05:48:53;;;;;;;1557.03;999.90;;;32.70;99.90;;;;;;5067659;28;20108;-63
2023/12/06 05:51:20;;;;;;;1549.80;999.90;;;32.70;99.90;;;;;;5064695;28;20495;-65
2023/12/06 05:53:48;;;;;;;1541.25;999.90;;;32.70;99.90;;;;;;5070153;28;20055;-65
2023/12/06 05:56:15;;;;;;;1539.25;999.90;;;32.70;99.90;;;;;;5068575;28;20037;-64
2023/12/06 05:58:42;;;;;;;1556.78;999.90;;;32.70;99.90;;;;;;5077157;28;20024;-62
2023/12/06 06:01:09;;;;;;;1552.50;999.90;;;32.70;99.90;;;;;;5065365;28;20496;-62
2023/12/06 06:03:36;;;;;;;1559.82;999.90;;;32.70;99.90;;;;;;5046844;28;20480;-62
2023/12/06 06:06:07;;;;;;;1546.63;999.90;;;32.60;99.90;;;;;;5040721;28;20025;-65
2023/12/06 06:08:35;;;;;;;1542.85;999.90;;;32.70;99.90;;;;;;5036620;28;20104;-65
2023/12/06 06:11:02;;;;;;;1558.80;999.90;;;32.70;99.90;;;;;;5036556;28;20045;-62
2023/12/06 06:13:29;;;;;;;1549.50;999.90;;;32.70;99.90;;;;;;5036346;28;20021;-66
2023/12/06 06:15:57;;;;;;;1558.40;999.90;;;32.70;99.90;;;;;;5036322;28;20097;-65
2023/12/06 06:18:24;;;;;;;1558.45;999.90;;;32.70;99.90;;;;;;5036281;28;20392;-66
2023/12/06 06:20:51;;;;;;;1556.38;999.90;;;32.80;99.90;;;;;;5036198;28;20430;-65
2023/12/06 06:23:17;;;;;;;1554.93;999.90;;;32.80;99.90;;;;;;5036180;28;20028;-65
2023/12/06 06:25:44;;;;;;;1561.68;999.90;;;32.80;99.90;;;;;;5036416;28;20018;-66
2023/12/06 06:28:11;;;;;;;1560.68;999.90;;;32.70;99.90;;;;;;5036027;28;20032;-65
2023/12/06 06:30:37;;;;;;;1555.32;999.90;;;32.70;99.90;;;;;;5036124;28;20575;-65
2023/12/06 06:33:04;;;;;;;1558.60;999.90;;;32.80;99.90;;;;;;5036052;28;20480;-64
2023/12/06 06:35:31;;;;;;;1551.50;999.90;;;32.80;99.90;;;;;;5035972;28;20167;-65
2023/12/06 06:37:57;;;;;;;1543.55;999.90;;;32.80;99.90;;;;;;5035960;28;20049;-64
2023/12/06 06:40:24;;;;;;;1556.25;999.90;;;32.80;99.90;;;;;;5035936;28;20105;-66
2023/12/06 06:42:51;;;;;;;1537.63;999.90;;;32.70;99.90;;;;;;5035888;28;20025;-64
2023/12/06 06:45:17;;;;;;;1546.20;999.90;;;32.70;99.90;;;;;;5036031;28;20028;-65
2023/12/06 06:47:44;;;;;;;1561.05;999.90;;;32.70;99.90;;;;;;5035974;28;20056;-65
2023/12/06 06:50:13;;;;;;;1557.15;999.90;;;32.70;99.90;;;;;;5055324;28;20049;-66
2023/12/06 06:52:39;;;;;;;1560.93;999.90;;;32.70;99.90;;;;;;5074316;28;20050;-65
2023/12/06 06:55:08;;;;;;;1557.10;999.90;;;32.70;99.90;;;;;;5075638;28;20032;-66
2023/12/06 06:57:35;;;;;;;1542.63;999.90;;;32.70;99.90;;;;;;5075017;28;20383;-65
2023/12/06 07:00:02;;;;;;;1558.80;999.90;;;32.80;99.90;;;;;;5075236;28;20497;-65
2023/12/06 07:02:28;;;;;;;1558.93;999.90;;;32.80;99.90;;;;;;5064862;28;20035;-66
2023/12/06 07:04:55;;;;;;;1561.50;999.90;;;32.80;99.90;;;;;;5064676;28;20100;-67
2023/12/06 07:07:22;;;;;;;1554.78;999.90;;;32.80;99.90;;;;;;5065877;28;20021;-66
2023/12/06 07:09:49;;;;;;;1559.22;999.90;;;32.80;99.90;;;;;;5064489;28;20032;-66
2023/12/06 07:12:16;;;;;;;1557.28;999.90;;;32.80;99.90;;;;;;5064257;28;20035;-67
2023/12/06 07:14:42;;;;;;;1568.18;999.90;;;32.80;99.90;;;;;;5055337;28;20028;-62
2023/12/06 07:17:09;;;;;;;1561.28;999.90;;;32.70;99.90;;;;;;5055223;28;20074;-64
2023/12/06 07:19:36;;;;;;;1549.80;999.90;;;32.80;99.90;;;;;;5055204;28;20400;-64
2023/12/06 07:22:02;;;;;;;1571.50;999.90;;;32.80;99.90;;;;;;5057616;28;20027;-66
2023/12/06 07:24:29;;;;;;;1557.30;999.90;;;32.80;99.90;;;;;;5065625;28;20013;-65
2023/12/06 07:26:55;;;;;;;1557.68;999.90;;;32.70;99.90;;;;;;5063645;28;20017;-65
2023/12/06 07:29:22;;;;;;;1567.40;999.90;;;32.70;99.90;;;;;;5064921;28;20486;-65
2023/12/06 07:31:50;;;;;;;1553.32;999.90;;;32.70;99.90;;;;;;5065471;28;20100;-65
2023/12/06 07:34:17;;;;;;;1554.25;999.90;;;32.70;99.90;;;;;;5063561;28;20023;-66
2023/12/06 07:36:45;;;;;;;1567.07;999.90;;;32.70;99.90;;;;;;5065006;28;20035;-66
2023/12/06 07:39:14;;;;;;;1571.65;999.90;;;32.70;99.90;;;;;;5065498;28;20028;-69
2023/12/06 07:41:41;;;;;;;1562.35;999.90;;;32.70;99.90;;;;;;5064257;28;20025;-68
2023/12/06 07:44:08;;;;;;;1560.82;999.90;;;32.80;99.90;;;;;;5064885;28;20013;-67
2023/12/06 07:46:35;;;;;;;1570.93;999.90;;;32.80;99.90;;;;;;5060866;28;20021;-67
2023/12/06 07:49:01;;;;;;;1569.88;999.90;;;32.80;99.90;;;;;;5064453;28;20017;-69
2023/12/06 07:51:28;;;;;;;1570.25;999.90;;;32.80;99.90;;;;;;5073681;28;20060;-65
2023/12/06 07:53:56;;;;;;;1571.53;999.90;;;32.70;99.90;;;;;;5074677;28;20033;-65
2023/12/06 07:56:22;;;;;;;1565.22;999.90;;;32.80;99.90;;;;;;5074421;28;20111;-64
2023/12/06 07:58:51;;;;;;;1570.32;999.90;;;32.80;99.90;;;;;;5063442;28;20039;-64
2023/12/06 08:01:17;;;;;;;1564.18;999.90;;;32.90;99.90;;;;;;5046580;28;20154;-63
2023/12/06 08:03:44;;;;;;;1557.57;999.90;;;33.00;99.90;;;;;;5038347;28;20072;-64
2023/12/06 08:06:12;;;;;;;1554.60;999.90;;;33.10;99.90;;;;;;5043352;28;20029;-63
2023/12/06 08:08:39;;;;;;;1553.22;999.90;;;33.10;99.90;;;;;;5045498;28;20051;-63
2023/12/06 08:11:05;;;;;;;1564.65;999.90;;;33.10;99.90;;;;;;5049007;28;20470;-66
2023/12/06 08:13:32;;;;;;;1539.22;999.90;;;33.10;99.90;;;;;;5034190;28;20025;-66
2023/12/06 08:15:58;;;;;;;1537.95;999.90;;;33.20;99.90;;;;;;5034141;28;20026;-64
2023/12/06 08:18:25;;;;;;;1533.70;999.90;;;33.20;99.90;;;;;;5033794;28;20013;-64
2023/12/06 08:20:51;;;;;;;1568.65;999.90;;;33.30;99.90;;;;;;5036363;28;20025;-66
2023/12/06 08:23:20;;;;;;;1561.97;999.90;;;33.30;99.90;;;;;;5053979;28;20036;-65
2023/12/06 08:25:47;;;;;;;1557.22;999.90;;;33.20;99.90;;;;;;5053837;28;20031;-65
2023/12/06 08:28:14;;;;;;;1550.45;999.90;;;33.20;99.90;;;;;;5049213;28;20030;-65
2023/12/06 08:30:41;;;;;;;1561.78;999.90;;;33.20;99.90;;;;;;5055825;28;20020;-64
2023/12/06 08:33:07;;;;;;;1567.95;999.90;;;33.20;99.90;;;;;;5073379;28;20024;-63
2023/12/06 08:35:34;;;;;;;1551.70;999.90;;;33.30;99.90;;;;;;5073154;28;20027;-66
2023/12/06 08:38:00;;;;;;;1562.47;999.90;;;33.40;99.90;;;;;;5068095;28;20073;-63
2023/12/06 08:40:28;;;;;;;1572.30;999.90;;;33.40;99.90;;;;;;5073373;28;20032;-64
2023/12/06 08:42:55;;;;;;;1566.68;999.90;;;33.40;99.90;;;;;;5073105;28;20430;-64
2023/12/06 08:45:22;;;;;;;1567.50;999.90;;;33.40;99.90;;;;;;5073205;28;20020;-63
2023/12/06 08:47:48;;;;;;;1555.38;999.90;;;33.40;99.90;;;;;;5073139;28;20459;-66
2023/12/06 08:50:15;;;;;;;1573.30;999.90;;;33.40;99.90;;;;;;5072478;28;20479;-63
2023/12/06 08:52:45;;;;;;;1568.43;999.90;;;33.40;99.90;;;;;;5072966;28;20032;-66
2023/12/06 08:55:12;;;;;;;1556.68;999.90;;;33.40;99.90;;;;;;5071036;28;20501;-62
2023/12/06 08:57:39;;;;;;;1571.60;999.90;;;33.40;99.90;;;;;;5072826;28;20115;-62
2023/12/06 09:00:07;;;;;;;1570.43;999.90;;;33.40;99.90;;;;;;5073341;28;20517;-63
2023/12/06 09:02:37;;;;;;;1561.63;999.90;;;33.40;99.90;;;;;;5072885;28;20035;-62
2023/12/06 09:05:03;;;;;;;1563.53;999.90;;;33.40;99.90;;;;;;5068509;28;20024;-64
2023/12/06 09:07:30;;;;;;;1571.30;999.90;;;33.40;99.90;;;;;;5042229;28;20036;-65
2023/12/06 09:09:56;;;;;;;1568.38;999.90;;;33.40;99.90;;;;;;5053369;28;20020;-64
2023/12/06 09:12:23;;;;;;;1551.20;999.90;;;33.20;99.90;;;;;;5069774;28;20059;-66
2023/12/06 09:14:49;;;;;;;1559.30;999.90;;;33.00;99.90;;;;;;5067806;28;20051;-66
2023/12/06 09:17:16;;;;;;;1571.45;999.90;;;32.80;99.90;;;;;;5070169;28;20111;-66
2023/12/06 09:19:42;;;;;;;1564.88;999.90;;;32.60;99.90;;;;;;5072948;28;20437;-63
2023/12/06 09:22:09;;;;;;;1546.68;999.90;;;32.40;99.90;;;;;;5073263;28;20052;-65
2023/12/06 09:24:35;;;;;;;1557.95;999.90;;;32.20;99.90;;;;;;5060765;28;20112;-64
2023/12/06 09:27:03;;;;;;;1552.72;999.90;;;32.10;99.90;;;;;;5059972;28;20063;-64
2023/12/06 09:29:30;;;;;;;1560.63;999.90;;;32.00;99.90;;;;;;5071025;28;20024;-64
2023/12/06 09:31:57;;;;;;;1564.13;999.90;;;31.90;99.90;;;;;;5072344;28;20012;-66
2023/12/06 09:34:23;;;;;;;1582.07;999.90;;;31.80;99.90;;;;;;5072774;28;20021;-65
2023/12/06 09:36:50;;;;;;;1596.40;999.90;;;31.80;99.90;;;;;;5062975;28;20380;-66
2023/12/06 09:39:20;;;;;;;1575.95;999.90;;;31.70;99.90;;;;;;5072443;28;20029;-66
2023/12/06 09:41:47;;;;;;;1576.20;999.90;;;31.60;99.90;;;;;;5072767;28;20021;-66
2023/12/06 09:44:16;;;;;;;1587.38;999.90;;;31.60;99.90;;;;;;5072714;28;20051;-66
2023/12/06 09:46:44;;;;;;;1589.25;999.90;;;31.50;99.90;;;;;;5068554;28;20044;-64
2023/12/06 09:49:11;;;;;;;1594.70;999.90;;;31.50;99.90;;;;;;5059280;28;20024;-65
2023/12/06 09:51:38;;;;;;;1557.82;999.90;;;31.50;99.90;;;;;;5050361;28;20132;-64
2023/12/06 09:54:04;;;;;;;1586.07;999.90;;;31.50;99.90;;;;;;5061994;28;20398;-64
2023/12/06 09:56:33;;;;;;;1587.70;999.90;;;31.60;99.90;;;;;;5067331;28;20467;-63
2023/12/06 09:58:59;;;;;;;1585.70;999.90;;;31.60;99.90;;;;;;5068739;28;20128;-64
2023/12/06 10:01:26;;;;;;;1565.90;999.90;;;31.60;99.90;;;;;;5069280;28;20078;-65
2023/12/06 10:03:52;;;;;;;1604.30;999.90;;;31.60;99.90;;;;;;5069327;28;20445;-64
2023/12/06 10:06:19;;;;;;;1502.72;999.90;;;31.50;99.90;;;;;;5055292;28;20355;-65
2023/12/06 10:08:51;;;;;;;1590.30;999.90;;;31.40;99.90;;;;;;5055260;28;20520;-66
2023/12/06 10:11:22;;;;;;;1501.20;999.90;;;31.30;99.90;;;;;;5053009;28;20094;-66
2023/12/06 10:13:49;;;;;;;1548.72;999.90;;;31.30;99.90;;;;;;5054977;28;20017;-66
2023/12/06 10:16:17;;;;;;;1555.95;999.90;;;31.30;99.90;;;;;;5054922;28;20104;-66
2023/12/06 10:18:48;;;;;;;1580.93;999.90;;;31.30;99.90;;;;;;5052683;28;20051;-65
2023/12/06 10:21:15;;;;;;;1586.18;999.90;;;31.20;99.90;;;;;;5054674;28;20024;-66
2023/12/06 10:23:42;;;;;;;1593.72;999.90;;;31.20;99.90;;;;;;5054660;28;20059;-65
2023/12/06 10:26:15;;;;;;;1579.68;999.90;;;31.20;99.90;;;;;;5054393;28;20393;-64
2023/12/06 10:28:41;;;;;;;1576.13;999.90;;;31.20;99.90;;;;;;5064802;28;20466;-67
2023/12/06 10:31:08;;;;;;;1577.13;999.90;;;31.20;99.90;;;;;;5062807;28;20470;-68
2023/12/06 10:33:54;;;;;;;1594.20;999.90;;;31.20;99.90;;;;;;5061154;28;20557;-66
2023/12/06 10:36:21;;;;;;;1600.20;999.90;;;31.10;99.90;;;;;;5063197;28;20029;-65
2023/12/06 10:38:49;;;;;;;1568.15;999.90;;;31.00;99.90;;;;;;5058713;28;20029;-68
2023/12/06 10:41:17;;;;;;;1589.75;999.90;;;30.90;99.90;;;;;;5061780;28;20025;-67
2023/12/06 10:43:44;;;;;;;1596.10;999.90;;;30.90;99.90;;;;;;5063230;28;20366;-64
2023/12/06 10:46:12;;;;;;;1611.45;999.90;;;30.80;99.90;;;;;;5063518;28;20070;-66
2023/12/06 10:48:39;;;;;;;1580.63;999.90;;;30.80;99.90;;;;;;5062655;28;20163;-67
2023/12/06 10:51:07;;;;;;;1616.72;999.90;;;30.70;99.90;;;;;;5067122;28;20048;-66
2023/12/06 10:53:34;;;;;;;1615.88;999.90;;;30.60;99.90;;;;;;5068722;28;20036;-67
2023/12/06 10:56:01;;;;;;;1618.07;999.90;;;30.60;99.90;;;;;;5074340;28;20056;-67
2023/12/06 10:58:28;;;;;;;1619.28;999.90;;;30.50;99.90;;;;;;5073407;28;20024;-63
2023/12/06 11:00:54;;;;;;;1618.57;999.90;;;30.30;99.90;;;;;;5064310;28;20158;-66
2023/12/06 11:03:21;;;;;;;1618.93;999.90;;;30.30;99.90;;;;;;5071541;28;20430;-67
2023/12/06 11:05:53;;;;;;;1615.53;999.90;;;30.20;99.90;;;;;;5074799;28;20021;-68
2023/12/06 11:08:49;;;;;;;1600.32;999.90;;;30.10;99.90;;;;;;5062348;28;20032;-68
2023/12/06 11:11:55;;;;;;;1625.60;999.90;;;30.20;99.90;;;;;;5064854;28;20021;-65
2023/12/06 11:15:01;;;;;;;1616.55;999.90;;;30.20;99.90;;;;;;4973341;28;20034;-66
2023/12/06 11:17:58;;;;;;;1601.57;999.90;;;30.20;99.90;;;;;;4975391;28;20042;-67
2023/12/06 11:20:25;;;;;;;1595.50;999.90;;;30.10;99.90;;;;;;4936749;29;20036;-66
2023/12/06 11:22:52;;;;;;;1611.63;999.90;;;30.00;99.90;;;;;;4936299;29;20072;-66
2023/12/06 11:25:20;;;;;;;1599.88;999.90;;;29.90;99.90;;;;;;4928051;29;20451;-65
2023/12/06 11:27:50;;;;;;;1624.30;999.90;;;29.90;99.90;;;;;;4926660;29;20439;-66
2023/12/06 11:30:17;;;;;;;1616.40;999.90;;;29.80;99.90;;;;;;4928521;29;20031;-66
2023/12/06 11:32:45;;;;;;;1608.65;999.90;;;29.80;99.90;;;;;;4930668;29;20043;-67
2023/12/06 11:35:12;;;;;;;1623.90;999.90;;;29.70;99.90;;;;;;4932485;29;20257;-65
2023/12/06 11:37:39;;;;;;;1619.35;999.90;;;29.70;99.90;;;;;;4929634;29;20102;-68
2023/12/06 11:40:18;;;;;;;1596.28;999.90;;;29.70;99.90;;;;;;4932189;29;20031;-64
2023/12/06 11:43:05;;;;;;;1604.53;999.90;;;29.60;99.90;;;;;;4929454;29;20119;-62
2023/12/06 11:45:36;;;;;;;1586.32;999.90;;;29.70;99.90;;;;;;4931609;29;20031;-65
2023/12/06 11:48:05;;;;;;;1602.10;999.90;;;29.60;99.90;;;;;;4933927;29;20062;-63
2023/12/06 11:50:50;;;;;;;1592.97;999.90;;;29.60;99.90;;;;;;4923419;29;20482;-65
2023/12/06 11:53:16;;;;;;;1604.82;999.90;;;29.60;99.90;;;;;;4925611;29;20027;-69
2023/12/06 11:55:43;;;;;;;1564.10;999.90;;;29.60;99.90;;;;;;4924577;29;20281;-66
2023/12/06 11:58:11;;;;;;;1602.15;999.90;;;29.60;99.90;;;;;;4924721;29;20056;-66
2023/12/06 12:00:43;;;;;;;1572.78;999.90;;;29.60;99.90;;;;;;4927252;29;20043;-67